createdAt,value
2023-08-06T00:00:55.140Z,64.3
2023-08-06T00:06:32.668Z,64.3
2023-08-06T00:12:24.777Z,64.3
2023-08-06T00:18:01.520Z,64.2
2023-08-06T00:23:53.294Z,64.2
2023-08-06T00:29:44.862Z,64.1
2023-08-06T00:35:36.543Z,64.1
2023-08-06T00:41:27.518Z,64.1
2023-08-06T00:47:03.991Z,64
2023-08-06T00:52:57.721Z,63.9
2023-08-06T00:58:49.071Z,63.9
2023-08-06T01:04:41.467Z,63.9
2023-08-06T01:10:32.988Z,63.9
2023-08-06T01:16:09.728Z,63.8
2023-08-06T01:21:46.442Z,63.8
2023-08-06T01:27:37.872Z,63.8
2023-08-06T01:33:30.167Z,63.7
2023-08-06T01:39:21.335Z,63.6
2023-08-06T01:45:13.536Z,63.6
2023-08-06T01:51:05.211Z,63.6
2023-08-06T01:56:41.727Z,63.5
2023-08-06T02:02:18.359Z,63.5
2023-08-06T02:08:10.236Z,63.4
2023-08-06T02:14:00.532Z,63.4
2023-08-06T02:19:52.272Z,63.4
2023-08-06T02:25:43.704Z,63.3
2023-08-06T02:31:35.545Z,63.3
2023-08-06T02:37:27.512Z,63.3
2023-08-06T02:43:04.017Z,63.2
2023-08-06T02:48:41.885Z,63.2
2023-08-06T02:54:33.808Z,63.1
2023-08-06T03:00:25.881Z,63.1
2023-08-06T03:06:18.101Z,63.1
2023-08-06T03:12:10.307Z,63
2023-08-06T03:18:02.512Z,62.9
2023-08-06T03:23:53.308Z,62.9
2023-08-06T03:29:29.525Z,62.9
2023-08-06T03:35:21.753Z,62.8
2023-08-06T03:41:13.387Z,62.8
2023-08-06T03:47:05.981Z,62.8
2023-08-06T03:52:58.154Z,62.7
2023-08-06T03:58:49.816Z,62.7
2023-08-06T04:04:27.749Z,62.6
2023-08-06T04:10:19.358Z,62.6
2023-08-06T04:16:11.391Z,62.6
2023-08-06T04:22:03.544Z,62.6
2023-08-06T04:27:39.865Z,62.5
2023-08-06T04:33:33.482Z,62.4
2023-08-06T04:39:24.935Z,62.4
2023-08-06T04:45:16.957Z,62.4
2023-08-06T04:51:08.605Z,62.3
2023-08-06T04:57:00.630Z,62.3
2023-08-06T05:02:54.199Z,62.3
2023-08-06T05:08:30.512Z,62.2
2023-08-06T05:14:21.736Z,62.2
2023-08-06T05:20:14.022Z,62.1
2023-08-06T05:26:05.712Z,62.1
2023-08-06T05:31:41.904Z,62.1
2023-08-06T05:37:36.040Z,62
2023-08-06T05:43:27.295Z,62
2023-08-06T05:49:21.895Z,61.9
2023-08-06T05:55:15.078Z,61.9
2023-08-06T06:01:05.934Z,61.9
2023-08-06T06:06:57.684Z,61.8
2023-08-06T06:12:49.308Z,61.8
2023-08-06T06:18:43.821Z,61.8
2023-08-06T06:24:34.967Z,61.7
2023-08-06T06:30:30.090Z,61.6
2023-08-06T06:36:22.351Z,61.6
2023-08-06T06:42:14.601Z,61.6
2023-08-06T06:47:51.675Z,61.6
2023-08-06T06:53:42.761Z,61.5
2023-08-06T06:59:34.181Z,61.4
2023-08-06T07:05:27.022Z,61.4
2023-08-06T07:11:02.586Z,61.4
2023-08-06T07:16:42.609Z,61.3
2023-08-06T07:22:34.463Z,61.3
2023-08-06T07:28:11.200Z,61.2
2023-08-06T07:34:02.477Z,61.1
2023-08-06T07:39:54.654Z,61.1
2023-08-06T07:45:47.120Z,61.1
2023-08-06T07:51:40.310Z,61.1
2023-08-06T07:57:32.308Z,61
2023-08-06T08:03:08.873Z,61
2023-08-06T08:09:01.441Z,60.9
2023-08-06T08:14:53.229Z,60.9
2023-08-06T08:20:29.482Z,60.9
2023-08-06T08:26:21.530Z,60.8
2023-08-06T08:32:13.561Z,60.8
2023-08-06T08:38:08.531Z,60.8
2023-08-06T08:43:45.306Z,60.7
2023-08-06T08:49:07.820Z,60.7
2023-08-06T08:54:59.685Z,60.6
2023-08-06T09:00:51.875Z,60.6
2023-08-06T09:06:47.294Z,60.6
2023-08-06T09:12:22.971Z,60.5
2023-08-06T09:18:15.570Z,60.5
2023-08-06T09:24:07.282Z,60.6
2023-08-06T09:29:59.002Z,60.9
2023-08-06T09:35:51.874Z,61.1
2023-08-06T09:41:46.343Z,61.5
2023-08-06T09:47:37.849Z,61.9
2023-08-06T09:53:30.980Z,62.3
2023-08-06T09:59:34.663Z,62.5
2023-08-06T10:05:48.180Z,62.6
2023-08-06T10:11:44.190Z,62.7
2023-08-06T10:17:45.582Z,62.9
2023-08-06T10:23:41.280Z,62.9
2023-08-06T10:29:33.579Z,62.9
2023-08-06T10:35:25.387Z,62.9
2023-08-06T10:41:27.512Z,62.9
2023-08-06T10:47:23.097Z,62.9
2023-08-06T10:53:19.697Z,62.9
2023-08-06T10:59:11.411Z,62.9
2023-08-06T11:04:52.620Z,62.8
2023-08-06T11:10:54.383Z,62.8
2023-08-06T11:16:52.982Z,62.8
2023-08-06T11:22:30.067Z,62.8
2023-08-06T11:28:21.940Z,62.7
2023-08-06T11:34:14.097Z,62.7
2023-08-06T11:40:05.964Z,62.6
2023-08-06T11:45:57.588Z,62.6
2023-08-06T11:51:49.285Z,62.6
2023-08-06T11:57:41.189Z,62.5
2023-08-06T12:03:18.133Z,62.4
2023-08-06T12:09:09.846Z,62.4
2023-08-06T12:15:01.805Z,62.4
2023-08-06T12:20:53.906Z,62.4
2023-08-06T12:26:45.809Z,62.3
2023-08-06T12:32:38.227Z,62.3
2023-08-06T12:38:44.292Z,62.3
2023-08-06T12:45:00.444Z,62.3
2023-08-06T12:50:52.688Z,62.2
2023-08-06T12:56:28.850Z,62.1
2023-08-06T13:02:22.149Z,62.1
2023-08-06T13:08:18.440Z,62.1
2023-08-06T13:13:54.516Z,62.1
2023-08-06T13:19:30.452Z,62
2023-08-06T13:25:22.760Z,61.9
2023-08-06T13:31:16.432Z,61.9
2023-08-06T13:37:07.624Z,61.9
2023-08-06T13:43:01.361Z,61.9
2023-08-06T13:48:38.478Z,61.8
2023-08-06T13:54:20.410Z,61.8
2023-08-06T13:59:57.554Z,61.8
2023-08-06T14:06:03.651Z,61.7
2023-08-06T14:11:55.341Z,61.7
2023-08-06T14:17:59.052Z,61.6
2023-08-06T14:23:35.736Z,61.6
2023-08-06T14:29:11.183Z,61.6
2023-08-06T14:35:17.211Z,61.5
2023-08-06T14:41:24.001Z,61.4
2023-08-06T14:47:15.560Z,61.4
2023-08-06T14:53:07.803Z,61.4
2023-08-06T14:58:59.492Z,61.3
2023-08-06T15:04:51.428Z,61.3
2023-08-06T15:11:15.725Z,61.2
2023-08-06T15:17:06.814Z,61.2
2023-08-06T15:22:58.962Z,61.1
2023-08-06T15:28:50.908Z,61.1
2023-08-06T15:34:31.259Z,61.1
2023-08-06T15:40:22.133Z,61
2023-08-06T15:46:13.731Z,61
2023-08-06T15:52:08.426Z,60.9
2023-08-06T15:57:44.227Z,60.9
2023-08-06T16:03:05.962Z,60.9
2023-08-06T16:08:59.438Z,60.8
2023-08-06T16:14:51.618Z,60.8
2023-08-06T16:20:47.077Z,60.8
2023-08-06T16:26:38.619Z,60.7
2023-08-06T16:32:30.017Z,60.6
2023-08-06T16:38:21.498Z,60.6
2023-08-06T16:44:15.179Z,60.6
2023-08-06T16:50:06.371Z,60.6
2023-08-06T16:55:58.827Z,60.5
2023-08-06T17:01:35.730Z,60.4
2023-08-06T17:07:28.940Z,60.4
2023-08-06T17:13:35.276Z,60.4
2023-08-06T17:19:28.284Z,60.3
2023-08-06T17:25:19.168Z,60.3
2023-08-06T17:31:11.166Z,60.3
2023-08-06T17:37:03.362Z,60.3
2023-08-06T17:42:54.623Z,60.2
2023-08-06T17:48:58.493Z,60.1
2023-08-06T17:54:49.838Z,60.1
2023-08-06T18:00:41.245Z,60.1
2023-08-06T18:06:34.209Z,60.1
2023-08-06T18:12:25.873Z,60
2023-08-06T18:18:17.501Z,59.9
2023-08-06T18:23:54.515Z,59.9
2023-08-06T18:29:46.655Z,59.9
2023-08-06T18:35:38.457Z,59.8
2023-08-06T18:41:30.403Z,59.8
2023-08-06T18:47:22.707Z,59.8
2023-08-06T18:53:13.558Z,59.8
2023-08-06T18:59:05.890Z,59.7
2023-08-06T19:04:58.548Z,59.6
2023-08-06T19:10:51.296Z,59.6
2023-08-06T19:16:43.523Z,59.6
2023-08-06T19:22:22.535Z,59.5
2023-08-06T19:28:14.534Z,59.5
2023-08-06T19:34:12.132Z,59.4
2023-08-06T19:40:04.525Z,59.3
2023-08-06T19:45:39.972Z,59.1
2023-08-06T19:51:33.604Z,59
2023-08-06T19:57:26.188Z,58.9
2023-08-06T20:03:02.681Z,58.9
2023-08-06T20:08:54.431Z,58.8
2023-08-06T20:14:48.180Z,58.8
2023-08-06T20:20:40.341Z,58.8
2023-08-06T20:26:34.027Z,58.7
2023-08-06T20:32:27.879Z,58.6
2023-08-06T20:43:55.955Z,58.5
2023-08-06T20:49:32.789Z,58.5
2023-08-06T20:55:23.421Z,58.4
2023-08-06T21:01:15.158Z,58.4
2023-08-06T21:07:06.864Z,58.3
2023-08-06T21:12:56.852Z,58.3
2023-08-06T21:18:49.661Z,58.3
2023-08-06T21:24:41.308Z,58.2
2023-08-06T21:30:32.656Z,58.1
2023-08-06T21:36:28.248Z,58.1
2023-08-06T21:42:20.027Z,58.1
2023-08-06T21:48:13.554Z,58
2023-08-06T21:54:05.408Z,57.9
2023-08-06T21:59:57.433Z,57.9
2023-08-06T22:05:35.122Z,57.9
2023-08-06T22:11:26.320Z,57.8
2023-08-06T22:28:30.232Z,57.7
2023-08-06T22:34:36.252Z,57.6
2023-08-06T22:40:27.256Z,57.6
2023-08-06T22:46:18.850Z,57.6
2023-08-06T22:52:11.194Z,57.5
2023-08-06T22:58:55.982Z,57.4
2023-08-06T23:05:04.771Z,57.4
2023-08-06T23:10:57.416Z,57.3
2023-08-06T23:16:49.441Z,57.3
2023-08-06T23:22:40.519Z,57.3
2023-08-06T23:28:31.836Z,57.2
2023-08-06T23:34:27.323Z,57.2
2023-08-06T23:40:29.232Z,57.1
2023-08-06T23:46:20.888Z,57.1
2023-08-06T23:51:57.267Z,57
2023-08-06T23:57:48.559Z,57
